createdAt,value
2022-11-17T00:01:54.629Z,14.15
2022-11-17T00:09:31.290Z,21.00
2022-11-17T00:17:08.061Z,16.08
2022-11-17T00:24:43.276Z,17.80
2022-11-17T00:32:37.598Z,18.80
2022-11-17T00:40:14.658Z,21.35
2022-11-17T00:47:49.410Z,16.77
2022-11-17T00:55:24.701Z,19.05
2022-11-17T01:02:58.602Z,18.27
2022-11-17T01:10:36.269Z,17.50
2022-11-17T01:18:11.144Z,17.08
2022-11-17T01:25:46.565Z,20.38
2022-11-17T01:33:20.585Z,15.82
2022-11-17T01:40:58.907Z,16.43
2022-11-17T01:48:33.038Z,15.90
2022-11-17T01:56:13.235Z,14.30
2022-11-17T02:03:50.109Z,16.58
2022-11-17T02:11:26.482Z,15.13
2022-11-17T02:19:00.806Z,14.43
2022-11-17T02:27:09.774Z,15.55
2022-11-17T02:34:47.816Z,13.95
2022-11-17T02:42:43.813Z,13.32
2022-11-17T02:50:27.886Z,13.50
2022-11-17T02:58:02.369Z,16.38
2022-11-17T03:05:42.971Z,13.40
2022-11-17T03:13:25.070Z,12.07
2022-11-17T03:21:08.981Z,14.13
2022-11-17T03:28:45.667Z,14.90
2022-11-17T03:36:26.334Z,14.38
2022-11-17T03:44:02.556Z,17.13
2022-11-17T03:51:38.809Z,15.40
2022-11-17T03:59:17.519Z,14.20
2022-11-17T04:06:53.920Z,14.50
2022-11-17T04:14:45.223Z,15.50
2022-11-17T04:22:20.792Z,15.95
2022-11-17T04:29:54.566Z,19.88
2022-11-17T04:37:29.978Z,14.40
2022-11-17T04:45:03.844Z,20.73
2022-11-17T04:52:39.123Z,18.27
2022-11-17T05:00:14.449Z,15.73
2022-11-17T05:07:50.041Z,16.73
2022-11-17T05:15:44.192Z,18.55
2022-11-17T05:23:37.223Z,16.35
2022-11-17T05:31:11.707Z,17.23
2022-11-17T05:38:47.843Z,20.63
2022-11-17T05:46:22.303Z,23.10
2022-11-17T05:53:57.580Z,17.48
2022-11-17T06:01:35.141Z,20.42
2022-11-17T06:09:10.659Z,19.40
2022-11-17T06:16:47.873Z,18.02
2022-11-17T06:24:23.675Z,17.55
2022-11-17T06:31:59.251Z,18.95
2022-11-17T06:39:37.048Z,18.13
2022-11-17T06:47:11.046Z,15.85
2022-11-17T06:54:46.514Z,14.13
2022-11-17T07:02:21.845Z,15.98
2022-11-17T07:09:57.250Z,15.20
2022-11-17T07:17:35.745Z,14.93
2022-11-17T07:25:12.845Z,15.25
2022-11-17T07:32:50.676Z,15.00
2022-11-17T07:40:30.325Z,14.88
2022-11-17T07:48:05.928Z,13.02
2022-11-17T07:55:41.178Z,18.90
2022-11-17T08:03:15.035Z,16.52
2022-11-17T08:10:50.669Z,16.33
2022-11-17T08:18:24.915Z,14.57
2022-11-17T08:26:01.455Z,16.65
2022-11-17T08:33:35.244Z,16.58
2022-11-17T08:41:11.464Z,14.63
2022-11-17T08:48:45.537Z,15.48
2022-11-17T08:56:22.130Z,16.37
2022-11-17T09:03:56.154Z,15.20
2022-11-17T09:11:31.710Z,17.40
2022-11-17T09:19:06.855Z,16.38
2022-11-17T09:26:43.055Z,18.30
2022-11-17T09:34:17.278Z,16.52
2022-11-17T09:41:55.547Z,16.02
2022-11-17T09:49:38.118Z,17.73
2022-11-17T09:57:25.810Z,18.75
2022-11-17T10:05:00.381Z,21.45
2022-11-17T10:20:18.646Z,22.27
2022-11-17T10:27:55.397Z,27.52
2022-11-17T10:35:31.753Z,24.73
2022-11-17T10:43:23.852Z,23.35
2022-11-17T10:51:00.833Z,23.27
2022-11-17T10:58:56.751Z,23.33
2022-11-17T17:42:31.029Z,22.30
2022-11-17T17:50:05.507Z,22.20
2022-11-17T18:12:54.936Z,24.73
2022-11-17T18:20:29.056Z,25.55
2022-11-17T18:28:04.463Z,29.73
2022-11-17T18:35:38.300Z,24.65
2022-11-17T18:43:13.986Z,26.77
2022-11-17T18:51:17.770Z,26.88
2022-11-17T18:58:44.141Z,28.42
2022-11-17T19:06:19.087Z,29.30
2022-11-17T19:13:54.454Z,30.30
2022-11-17T19:21:30.480Z,30.27
2022-11-17T19:29:14.348Z,31.83
2022-11-17T19:36:50.449Z,32.72
2022-11-17T19:44:25.813Z,33.85
2022-11-17T19:51:59.964Z,29.50
2022-11-17T19:59:35.255Z,30.65
2022-11-17T20:07:10.531Z,33.42
2022-11-17T20:14:47.273Z,31.83
2022-11-17T20:22:21.320Z,32.15
2022-11-17T20:29:56.703Z,34.80
2022-11-17T20:37:30.620Z,32.88
2022-11-17T20:45:06.260Z,29.57
2022-11-17T20:52:43.670Z,30.75
2022-11-17T21:00:20.245Z,34.17
2022-11-17T21:07:54.046Z,34.58
2022-11-17T21:15:29.417Z,34.40
2022-11-17T21:23:04.016Z,32.67
2022-11-17T21:30:39.267Z,36.47
2022-11-17T21:38:13.948Z,33.28
2022-11-17T21:45:49.013Z,34.17
2022-11-17T21:53:22.858Z,35.55
2022-11-17T22:00:58.696Z,35.17
2022-11-17T22:08:32.913Z,38.35
2022-11-17T22:16:12.015Z,37.75
2022-11-17T22:23:45.936Z,35.67
2022-11-17T22:31:21.654Z,35.20
2022-11-17T22:38:55.551Z,35.33
2022-11-17T22:46:30.901Z,40.58
2022-11-17T22:54:05.397Z,34.55
2022-11-17T23:01:41.057Z,34.55
2022-11-17T23:09:15.226Z,32.65
2022-11-17T23:24:24.322Z,35.80
2022-11-17T23:31:59.556Z,37.80
2022-11-17T23:39:33.508Z,33.53
2022-11-17T23:47:08.635Z,34.33
2022-11-17T23:54:42.507Z,38.38
